Time;durP1;ratioP1;P1;durP2;ratioP2;P2;SDS_P1;SDS_P2;PMS_P1;PMS_P2;Temp;Humidity;BMP_temperature;BMP_pressure;BME280_temperature;BME280_humidity;BME280_pressure;Samples;Min_cycle;Max_cycle;Signal;HPM_P1;HPM_P2
2023/09/19 03:30:41;;;;;;;1.20;1.10;;;15.70;99.90;;;;;;6174028;22;21196;31
2023/09/19 03:33:10;;;;;;;0.90;0.80;;;15.70;99.90;;;;;;4966223;28;20472;-67
2023/09/19 03:35:38;;;;;;;2.50;1.10;;;15.70;99.90;;;;;;4973825;28;20543;-67
2023/09/19 03:38:05;;;;;;;2.07;1.47;;;15.70;99.90;;;;;;4970615;28;20525;-67
2023/09/19 03:40:31;;;;;;;1.10;1.00;;;15.80;99.90;;;;;;4972255;28;20489;-67
2023/09/19 03:43:01;;;;;;;1.40;1.07;;;15.80;99.90;;;;;;4954132;28;20466;-67
2023/09/19 03:45:28;;;;;;;1.27;1.00;;;15.80;99.90;;;;;;4954794;28;20469;-67
2023/09/19 03:47:55;;;;;;;1.43;1.00;;;15.70;99.90;;;;;;4954811;28;20466;-67
2023/09/19 03:50:23;;;;;;;4.33;1.10;;;15.80;99.90;;;;;;4954971;28;20505;-67
2023/09/19 03:52:49;;;;;;;1.10;0.87;;;15.80;99.90;;;;;;4954512;28;20556;-67
2023/09/19 03:55:16;;;;;;;1.70;1.23;;;15.80;99.90;;;;;;4954933;28;20845;-67
2023/09/19 03:57:43;;;;;;;1.60;1.10;;;15.80;99.90;;;;;;4954761;28;20464;-67
2023/09/19 04:00:11;;;;;;;1.20;1.10;;;15.80;99.90;;;;;;4954548;28;20498;-67
2023/09/19 04:02:39;;;;;;;1.03;0.90;;;15.80;99.90;;;;;;4954444;28;20827;-67
2023/09/19 04:05:07;;;;;;;1.90;1.30;;;15.80;99.90;;;;;;4954705;28;20480;-67
2023/09/19 04:07:35;;;;;;;2.43;1.10;;;15.80;99.90;;;;;;4954824;28;20479;-67
2023/09/19 04:10:02;;;;;;;1.60;1.10;;;15.80;99.90;;;;;;4954128;28;20473;-67
2023/09/19 04:12:29;;;;;;;2.85;1.50;;;15.70;99.90;;;;;;4953365;28;20472;-67
2023/09/19 04:14:56;;;;;;;1.73;1.20;;;15.70;99.90;;;;;;4953833;28;20210;-67
2023/09/19 04:17:23;;;;;;;1.60;0.90;;;15.70;99.90;;;;;;4954207;28;20465;-66
2023/09/19 04:19:50;;;;;;;1.53;1.43;;;15.70;99.90;;;;;;4954101;28;20489;-67
2023/09/19 04:22:16;;;;;;;1.30;1.07;;;15.70;99.90;;;;;;4953964;28;20494;-67
2023/09/19 04:24:45;;;;;;;3.03;1.20;;;15.70;99.90;;;;;;4953781;28;20473;-66
2023/09/19 04:27:14;;;;;;;1.20;1.10;;;15.60;99.90;;;;;;4953952;28;20876;-67
2023/09/19 04:29:41;;;;;;;1.80;1.10;;;15.70;99.90;;;;;;4954166;28;20544;-66
2023/09/19 04:32:09;;;;;;;1.53;1.17;;;15.70;99.90;;;;;;4953630;28;20481;-67
2023/09/19 04:34:36;;;;;;;1.70;1.60;;;15.70;99.90;;;;;;4953654;28;20469;-67
2023/09/19 04:37:03;;;;;;;1.43;1.27;;;15.70;99.90;;;;;;4953801;28;20479;-67
2023/09/19 04:39:30;;;;;;;1.40;1.30;;;15.70;99.90;;;;;;4953682;28;20488;-66
2023/09/19 04:41:59;;;;;;;1.30;1.20;;;15.70;99.90;;;;;;4953472;28;20575;-66
2023/09/19 04:44:26;;;;;;;2.60;1.40;;;15.70;99.90;;;;;;4953344;28;20468;-66
2023/09/19 04:46:52;;;;;;;1.20;1.10;;;15.60;99.90;;;;;;4953501;28;20466;-66
2023/09/19 04:49:19;;;;;;;1.30;1.17;;;15.60;99.90;;;;;;4953671;28;20465;-66
2023/09/19 04:51:47;;;;;;;1.40;1.10;;;15.60;99.90;;;;;;4953602;28;20862;-66
2023/09/19 04:54:14;;;;;;;1.17;1.07;;;15.60;99.90;;;;;;4953051;28;20555;-66
2023/09/19 04:56:41;;;;;;;1.87;1.33;;;15.60;99.90;;;;;;4953672;28;20471;-66
2023/09/19 04:59:10;;;;;;;1.67;1.37;;;15.60;99.90;;;;;;4953376;28;20464;-66
2023/09/19 05:01:37;;;;;;;2.80;1.47;;;15.60;99.90;;;;;;4953565;28;20488;-67
2023/09/19 05:04:05;;;;;;;1.10;1.00;;;15.70;99.90;;;;;;4952661;28;21004;-66
2023/09/19 05:06:31;;;;;;;1.87;1.10;;;15.70;99.90;;;;;;4953060;28;20468;-66
2023/09/19 05:09:00;;;;;;;1.53;1.43;;;15.70;99.90;;;;;;4953174;28;20464;-66
2023/09/19 05:11:26;;;;;;;2.43;1.33;;;15.70;99.90;;;;;;4953213;28;20484;-67
2023/09/19 05:13:53;;;;;;;1.40;1.17;;;15.70;99.90;;;;;;4952594;28;20464;-67
2023/09/19 05:16:22;;;;;;;1.30;1.10;;;15.70;99.90;;;;;;4953150;28;20487;-67
2023/09/19 05:18:49;;;;;;;1.70;1.30;;;15.70;99.90;;;;;;4953067;28;20465;-66
2023/09/19 05:21:17;;;;;;;1.37;1.27;;;15.70;99.90;;;;;;4952776;28;20493;-66
2023/09/19 05:23:43;;;;;;;1.93;1.83;;;15.70;99.90;;;;;;4952119;28;20520;-66
2023/09/19 05:26:12;;;;;;;1.20;1.10;;;15.70;99.90;;;;;;4953360;28;20465;-67
2023/09/19 05:28:39;;;;;;;3.43;1.17;;;15.60;99.90;;;;;;4952890;28;20480;-67
2023/09/19 05:31:06;;;;;;;2.33;1.80;;;15.60;99.90;;;;;;4952627;28;20489;-67
2023/09/19 05:33:34;;;;;;;1.40;1.30;;;15.60;99.90;;;;;;4952455;28;20476;-67
2023/09/19 05:36:01;;;;;;;2.13;1.40;;;15.60;99.90;;;;;;4952747;28;20460;-66
2023/09/19 05:38:27;;;;;;;3.77;1.20;;;15.60;99.90;;;;;;4952735;28;20541;-66
2023/09/19 05:40:54;;;;;;;2.07;1.37;;;15.60;99.90;;;;;;4952627;28;20491;-67
2023/09/19 05:43:21;;;;;;;1.47;1.37;;;15.60;99.90;;;;;;4952232;28;20470;-67
2023/09/19 05:45:48;;;;;;;1.87;1.00;;;15.60;99.90;;;;;;4952797;28;20544;-66
2023/09/19 05:48:16;;;;;;;2.20;1.40;;;15.60;99.90;;;;;;4952914;28;20461;-67
2023/09/19 05:50:44;;;;;;;1.40;1.30;;;15.60;99.90;;;;;;4952981;28;20845;-66
2023/09/19 05:53:12;;;;;;;1.63;1.33;;;15.60;99.90;;;;;;4952305;28;20461;-67
2023/09/19 05:55:39;;;;;;;2.23;1.47;;;15.60;99.90;;;;;;4952691;28;20980;-67
2023/09/19 05:58:06;;;;;;;1.80;1.27;;;15.60;99.90;;;;;;4952600;28;20492;-67
2023/09/19 06:00:33;;;;;;;1.73;1.53;;;15.70;99.90;;;;;;4952566;28;20533;-67
2023/09/19 06:03:01;;;;;;;3.20;1.30;;;15.70;99.90;;;;;;4952309;28;20465;-67
2023/09/19 06:05:30;;;;;;;1.70;1.40;;;15.70;99.90;;;;;;4952635;28;20467;-67
2023/09/19 06:08:00;;;;;;;2.47;1.40;;;15.70;99.90;;;;;;4952618;28;20496;-67
2023/09/19 06:10:27;;;;;;;1.20;0.93;;;15.60;99.90;;;;;;4952432;28;21002;-66
2023/09/19 06:12:55;;;;;;;1.30;1.20;;;15.60;99.90;;;;;;4951860;28;20468;-67
2023/09/19 06:15:22;;;;;;;1.93;1.20;;;15.50;99.90;;;;;;4952613;28;20530;-66
2023/09/19 06:17:50;;;;;;;1.77;1.00;;;15.50;99.90;;;;;;4952487;28;20556;-66
2023/09/19 06:20:17;;;;;;;1.57;1.00;;;15.50;99.90;;;;;;4952638;28;20494;-67
2023/09/19 06:22:45;;;;;;;1.33;1.03;;;15.50;99.90;;;;;;4952039;28;20472;-66
2023/09/19 06:25:17;;;;;;;1.30;1.10;;;15.50;99.90;;;;;;4952460;28;20962;-67
2023/09/19 06:27:44;;;;;;;1.70;1.00;;;15.40;99.90;;;;;;4952171;28;20471;-67
2023/09/19 06:30:13;;;;;;;1.30;1.10;;;15.40;99.90;;;;;;4952453;28;20456;-66
2023/09/19 06:32:39;;;;;;;1.47;1.20;;;15.40;99.90;;;;;;4951877;28;20563;-66
2023/09/19 06:35:08;;;;;;;1.10;0.93;;;15.30;99.90;;;;;;4955704;28;20829;-67
2023/09/19 06:37:35;;;;;;;1.40;1.20;;;15.40;99.90;;;;;;4956205;28;20813;-67
2023/09/19 06:40:02;;;;;;;1.20;1.03;;;15.40;99.90;;;;;;4955769;28;20492;-67
2023/09/19 06:42:30;;;;;;;3.17;1.23;;;15.40;99.90;;;;;;4955790;28;20601;-67
2023/09/19 06:44:57;;;;;;;1.97;1.47;;;15.50;99.90;;;;;;4955479;28;20460;-67
2023/09/19 06:47:25;;;;;;;2.33;1.30;;;15.50;99.90;;;;;;4955814;28;20475;-67
2023/09/19 06:49:52;;;;;;;2.70;1.47;;;15.60;99.90;;;;;;4955747;28;20465;-67
2023/09/19 06:52:22;;;;;;;1.43;1.33;;;15.60;99.90;;;;;;4955980;28;20492;-67
2023/09/19 06:54:50;;;;;;;1.87;1.40;;;15.60;99.90;;;;;;4955551;28;20464;-67
2023/09/19 06:57:17;;;;;;;2.13;1.90;;;15.70;99.90;;;;;;4955873;28;20470;-67
2023/09/19 06:59:45;;;;;;;2.17;1.30;;;15.70;99.90;;;;;;4955530;28;20472;-66
2023/09/19 07:02:13;;;;;;;2.60;1.37;;;15.80;99.90;;;;;;4955524;28;20543;-66
2023/09/19 07:04:40;;;;;;;2.43;1.37;;;15.90;99.90;;;;;;4955478;28;20847;-67
2023/09/19 07:07:08;;;;;;;1.13;1.03;;;16.00;99.90;;;;;;4955470;28;20469;-66
2023/09/19 07:09:35;;;;;;;1.87;1.27;;;16.00;99.90;;;;;;4955456;28;20463;-66
2023/09/19 07:12:02;;;;;;;1.20;1.00;;;16.00;99.90;;;;;;4955169;28;20571;-66
2023/09/19 07:14:30;;;;;;;1.67;1.57;;;16.10;99.90;;;;;;4955001;28;20469;-67
2023/09/19 07:16:59;;;;;;;1.77;1.30;;;16.10;99.90;;;;;;4955313;28;20460;-66
2023/09/19 07:19:28;;;;;;;1.63;1.37;;;16.20;99.90;;;;;;4955275;28;20472;-66
2023/09/19 07:21:55;;;;;;;1.00;0.90;;;16.20;99.90;;;;;;4954985;28;21088;-66
2023/09/19 07:24:23;;;;;;;1.43;1.33;;;16.30;99.90;;;;;;4954833;28;20468;-67
2023/09/19 07:26:50;;;;;;;1.70;1.00;;;16.30;99.90;;;;;;4954898;28;20795;-67
2023/09/19 07:29:17;;;;;;;1.43;1.17;;;16.40;99.90;;;;;;4955321;28;20466;-67
2023/09/19 07:31:44;;;;;;;1.63;1.40;;;16.40;99.90;;;;;;4954799;28;20486;-67
2023/09/19 07:34:13;;;;;;;2.10;1.50;;;16.50;99.90;;;;;;4954757;28;20466;-67
2023/09/19 07:36:41;;;;;;;2.03;1.40;;;16.60;99.90;;;;;;4955054;28;20469;-67
2023/09/19 07:39:08;;;;;;;1.70;1.60;;;16.60;99.90;;;;;;4954931;28;20837;-67
2023/09/19 07:41:35;;;;;;;1.20;1.10;;;16.70;99.90;;;;;;4954755;28;20863;-66
2023/09/19 07:44:01;;;;;;;1.37;1.20;;;16.70;99.90;;;;;;4954276;28;20474;-67
2023/09/19 07:46:30;;;;;;;2.20;1.40;;;16.80;99.90;;;;;;4954234;28;20461;-67
2023/09/19 07:48:57;;;;;;;1.30;1.20;;;16.90;99.90;;;;;;4954706;28;20465;-67
2023/09/19 07:51:25;;;;;;;1.20;1.10;;;16.90;99.90;;;;;;4954875;28;20493;-67
2023/09/19 07:53:52;;;;;;;3.37;1.50;;;17.00;99.90;;;;;;4953876;28;20873;-66
2023/09/19 07:56:20;;;;;;;2.47;1.67;;;17.10;99.90;;;;;;4954657;28;20977;-66
2023/09/19 07:58:46;;;;;;;1.83;1.30;;;17.20;99.90;;;;;;4954391;28;20481;-67
2023/09/19 08:01:15;;;;;;;1.53;1.00;;;17.20;99.90;;;;;;4954696;28;20490;-66
2023/09/19 08:03:43;;;;;;;1.30;1.20;;;17.30;99.90;;;;;;4953953;28;20528;-67
2023/09/19 08:06:10;;;;;;;1.30;1.10;;;17.30;99.90;;;;;;4954588;28;20475;-67
2023/09/19 08:08:38;;;;;;;1.27;1.17;;;17.40;99.90;;;;;;4954440;28;20501;-67
2023/09/19 08:11:11;;;;;;;1.20;1.10;;;17.50;99.90;;;;;;4954102;28;20478;-66
2023/09/19 08:13:41;;;;;;;1.60;1.47;;;17.60;99.90;;;;;;4953933;28;20536;-67
2023/09/19 08:16:08;;;;;;;1.80;1.50;;;17.60;99.90;;;;;;4954223;28;20469;-71
2023/09/19 08:18:34;;;;;;;1.67;1.40;;;17.70;99.90;;;;;;4954330;28;20839;-67
2023/09/19 08:21:01;;;;;;;1.20;1.10;;;17.70;99.90;;;;;;4953912;28;20486;-67
2023/09/19 08:23:28;;;;;;;1.50;1.23;;;17.80;99.90;;;;;;4953861;28;20475;-67
2023/09/19 08:26:06;;;;;;;1.90;1.30;;;17.80;99.90;;;;;;4953754;28;20467;-67
2023/09/19 08:28:33;;;;;;;1.50;1.17;;;17.90;99.90;;;;;;4953965;28;20990;-66
2023/09/19 08:31:04;;;;;;;1.70;1.60;;;18.00;99.90;;;;;;4953666;28;20846;-66
2023/09/19 08:33:31;;;;;;;1.90;1.47;;;18.10;99.90;;;;;;4953927;28;20474;-66
2023/09/19 08:35:58;;;;;;;2.17;1.30;;;18.20;99.90;;;;;;4953861;28;20477;-66
2023/09/19 08:38:28;;;;;;;1.47;1.30;;;18.30;99.90;;;;;;4954058;28;20474;-67
2023/09/19 08:41:00;;;;;;;1.93;1.27;;;18.40;99.90;;;;;;4953457;28;20612;-67
2023/09/19 08:43:27;;;;;;;1.50;1.40;;;18.50;99.90;;;;;;4953484;28;20475;-66
2023/09/19 08:45:59;;;;;;;2.07;1.27;;;18.50;99.90;;;;;;4953951;28;20472;-66
2023/09/19 08:48:28;;;;;;;1.60;1.10;;;18.50;99.90;;;;;;4954013;28;20558;-66
2023/09/19 08:50:59;;;;;;;1.60;1.33;;;18.50;99.90;;;;;;4953284;28;20483;-67
2023/09/19 08:53:37;;;;;;;1.40;1.20;;;18.70;99.90;;;;;;4953306;28;20463;-66
2023/09/19 08:56:09;;;;;;;2.40;1.53;;;18.70;99.90;;;;;;4953219;28;20554;-67
2023/09/19 08:58:46;;;;;;;1.33;1.10;;;18.90;99.90;;;;;;4952924;28;20475;-67
2023/09/19 09:01:15;;;;;;;1.77;1.30;;;19.00;99.90;;;;;;4953516;28;20846;-67
2023/09/19 09:03:46;;;;;;;1.57;1.47;;;19.20;99.90;;;;;;4953138;28;20467;-67
2023/09/19 09:06:15;;;;;;;1.33;1.17;;;19.40;99.90;;;;;;4953627;28;20467;-67
2023/09/19 09:08:43;;;;;;;1.40;1.13;;;19.60;99.90;;;;;;4953422;28;20460;-67
2023/09/19 09:11:12;;;;;;;3.17;1.27;;;19.60;99.90;;;;;;4953122;28;20991;-67
2023/09/19 09:13:41;;;;;;;1.70;1.40;;;19.60;99.90;;;;;;4952616;28;20471;-67
2023/09/19 09:16:08;;;;;;;1.60;1.20;;;19.60;99.90;;;;;;4953166;28;20471;-67
2023/09/19 09:18:35;;;;;;;1.63;1.50;;;19.40;99.90;;;;;;4953280;28;20478;-67
2023/09/19 09:21:03;;;;;;;1.27;1.17;;;19.30;99.90;;;;;;4952859;28;20488;-67
2023/09/19 09:23:31;;;;;;;1.60;1.40;;;19.30;99.90;;;;;;4952784;28;20922;-67
2023/09/19 09:26:02;;;;;;;2.70;1.27;;;19.50;99.90;;;;;;4952885;28;20464;-67
2023/09/19 09:28:33;;;;;;;1.33;1.20;;;19.60;99.90;;;;;;4953255;28;20469;-66
2023/09/19 09:31:00;;;;;;;1.70;1.30;;;19.70;99.90;;;;;;4952504;28;20480;-66
2023/09/19 09:33:28;;;;;;;1.50;1.10;;;19.80;99.90;;;;;;4952711;28;20528;-66
2023/09/19 09:35:57;;;;;;;1.60;1.40;;;19.80;99.90;;;;;;4952792;28;20468;-67
2023/09/19 09:38:31;;;;;;;1.40;1.20;;;20.00;99.90;;;;;;4953012;28;20496;-66
2023/09/19 09:41:06;;;;;;;1.23;1.13;;;20.30;99.90;;;;;;4952547;28;23020;-67
2023/09/19 09:43:36;;;;;;;1.80;1.60;;;20.60;99.90;;;;;;4952620;28;20471;-67
2023/09/19 09:49:24;;;;;;;2.07;1.60;;;21.10;99.90;;;;;;4951148;28;20556;-66
2023/09/19 09:51:59;;;;;;;1.20;1.10;;;21.20;99.90;;;;;;4952456;28;20834;-67
2023/09/19 09:54:34;;;;;;;1.57;1.20;;;21.10;99.90;;;;;;4952609;28;20463;-66
2023/09/19 09:57:05;;;;;;;1.60;1.50;;;21.10;99.90;;;;;;4952458;28;20465;-66
2023/09/19 09:59:50;;;;;;;1.37;1.20;;;21.20;99.90;;;;;;4953077;28;20499;-67
2023/09/19 10:02:22;;;;;;;3.17;1.53;;;21.30;99.90;;;;;;4952604;28;20494;-66
2023/09/19 10:04:59;;;;;;;1.90;1.20;;;21.50;99.90;;;;;;4951982;28;20556;-66
2023/09/19 10:07:28;;;;;;;7.07;1.53;;;21.50;99.90;;;;;;4952789;28;20518;-67
2023/09/19 10:10:05;;;;;;;2.07;1.33;;;21.50;99.90;;;;;;4955847;28;20985;-67
2023/09/19 10:12:33;;;;;;;2.07;1.53;;;21.50;99.90;;;;;;4956550;28;20534;-67
2023/09/19 10:15:03;;;;;;;1.67;1.23;;;21.50;99.90;;;;;;4955817;28;20474;-67
2023/09/19 10:17:32;;;;;;;1.47;1.13;;;21.60;99.90;;;;;;4956911;28;20873;-67
2023/09/19 10:20:06;;;;;;;1.50;1.27;;;21.70;99.90;;;;;;4956157;28;20474;-67
2023/09/19 10:22:35;;;;;;;1.23;1.13;;;21.90;99.90;;;;;;4956255;28;20530;-67
2023/09/19 10:25:07;;;;;;;1.90;1.70;;;22.00;99.90;;;;;;4955973;28;20472;-66
2023/09/19 10:27:37;;;;;;;1.73;1.27;;;22.00;99.90;;;;;;4956512;28;20534;-67
2023/09/19 10:30:08;;;;;;;1.50;1.20;;;22.10;99.90;;;;;;4955940;28;20983;-67
2023/09/19 10:32:37;;;;;;;1.67;1.33;;;22.20;99.90;;;;;;4956127;28;20490;-67
2023/09/19 10:35:07;;;;;;;1.33;1.23;;;22.30;99.90;;;;;;4955895;28;20527;-67
2023/09/19 10:37:37;;;;;;;5.53;1.20;;;22.30;99.90;;;;;;4956497;28;20510;-67
2023/09/19 10:40:08;;;;;;;1.23;1.10;;;22.30;99.90;;;;;;4955864;28;20570;-67
2023/09/19 10:42:41;;;;;;;2.10;1.20;;;22.40;99.90;;;;;;4955906;28;20498;-67
2023/09/19 10:45:13;;;;;;;1.30;1.10;;;22.50;99.90;;;;;;4955461;28;20829;-67
2023/09/19 10:47:40;;;;;;;2.00;1.20;;;22.50;99.90;;;;;;4956136;28;20471;-67
2023/09/19 10:50:12;;;;;;;1.53;1.20;;;22.50;99.90;;;;;;4955610;28;20463;-67
2023/09/19 10:52:43;;;;;;;1.93;1.37;;;22.60;99.90;;;;;;4955637;28;20547;-67
2023/09/19 10:55:18;;;;;;;2.07;1.27;;;22.80;99.90;;;;;;4955297;28;20560;-65
2023/09/19 10:57:46;;;;;;;1.47;1.20;;;22.90;99.90;;;;;;4956074;28;20463;-67
2023/09/19 11:00:23;;;;;;;1.30;1.10;;;22.90;99.90;;;;;;4955644;28;20471;-66
2023/09/19 11:03:20;;;;;;;1.43;1.30;;;22.80;99.90;;;;;;4954927;28;20850;-67
2023/09/19 11:06:13;;;;;;;1.87;1.50;;;23.00;99.90;;;;;;4955710;28;20470;-67
2023/09/19 11:08:57;;;;;;;1.53;1.40;;;23.10;99.90;;;;;;4955747;28;20975;-67
2023/09/19 11:11:50;;;;;;;1.87;1.40;;;23.20;99.90;;;;;;4955678;28;20488;-67
2023/09/19 11:14:39;;;;;;;1.27;0.90;;;23.20;99.90;;;;;;4954914;28;20464;-64
2023/09/19 11:17:32;;;;;;;1.50;1.10;;;23.20;99.90;;;;;;4955212;28;20456;-64
2023/09/19 11:20:24;;;;;;;1.93;1.00;;;23.30;99.90;;;;;;4953962;28;20460;-67
2023/09/19 11:23:22;;;;;;;2.63;1.13;;;23.30;99.90;;;;;;4954493;28;20490;-64
2023/09/19 11:25:50;;;;;;;1.70;1.40;;;23.40;99.90;;;;;;4955255;28;20464;-67
2023/09/19 11:28:30;;;;;;;1.70;1.40;;;23.50;99.90;;;;;;4955239;28;20460;-67
2023/09/19 11:30:58;;;;;;;3.00;1.10;;;23.30;99.90;;;;;;4954643;28;20488;-67
2023/09/19 11:33:32;;;;;;;1.93;1.37;;;22.80;99.90;;;;;;4954727;28;20992;-67
2023/09/19 11:36:01;;;;;;;1.87;1.40;;;22.60;99.90;;;;;;4954692;28;20539;-67
2023/09/19 11:39:08;;;;;;;2.10;0.93;;;22.60;99.90;;;;;;4955394;28;20460;-67
2023/09/19 11:41:39;;;;;;;1.37;1.10;;;22.50;99.90;;;;;;4954876;28;21002;-67
2023/09/19 11:44:36;;;;;;;1.63;1.03;;;22.40;99.90;;;;;;4954153;28;20468;-67
2023/09/19 11:47:05;;;;;;;2.13;1.30;;;22.40;99.90;;;;;;4954689;28;20845;-67
2023/09/19 11:49:34;;;;;;;1.73;1.33;;;22.60;99.90;;;;;;4954927;28;20478;-67
2023/09/19 11:52:05;;;;;;;1.43;1.10;;;22.80;99.90;;;;;;4954521;28;20574;-66
2023/09/19 11:54:32;;;;;;;3.40;1.27;;;22.90;99.90;;;;;;4954613;28;20475;-67
2023/09/19 11:57:00;;;;;;;2.23;1.53;;;23.00;99.90;;;;;;4954620;28;20471;-67
2023/09/19 11:59:29;;;;;;;1.93;1.23;;;23.10;99.90;;;;;;4954901;28;20463;-67
2023/09/19 12:01:58;;;;;;;1.40;1.30;;;22.80;99.90;;;;;;4954383;28;20892;-66
2023/09/19 12:04:38;;;;;;;1.00;0.90;;;22.70;99.90;;;;;;4954266;28;20869;-66
2023/09/19 12:07:10;;;;;;;1.33;1.10;;;22.70;99.90;;;;;;4954237;28;20941;-67
2023/09/19 12:09:39;;;;;;;2.13;1.50;;;22.60;99.90;;;;;;4954632;28;20468;-67
2023/09/19 12:12:06;;;;;;;1.50;1.20;;;22.70;99.90;;;;;;4954047;28;20491;-67
2023/09/19 12:14:34;;;;;;;1.60;1.20;;;23.10;99.90;;;;;;4954112;28;20969;-67
2023/09/19 12:17:03;;;;;;;2.33;1.50;;;23.40;99.90;;;;;;4954054;28;20468;-67
2023/09/19 12:19:30;;;;;;;1.40;0.90;;;23.50;99.90;;;;;;4954463;28;20659;-66
2023/09/19 12:22:05;;;;;;;1.53;1.03;;;23.40;99.90;;;;;;4954188;28;20492;-67
2023/09/19 12:24:35;;;;;;;2.37;1.40;;;23.50;99.90;;;;;;4954087;28;20871;-67
2023/09/19 12:27:05;;;;;;;1.67;1.20;;;23.70;99.90;;;;;;4953908;28;20522;-67
2023/09/19 12:29:36;;;;;;;1.57;1.30;;;23.80;99.90;;;;;;4954223;28;20464;-67
2023/09/19 12:32:06;;;;;;;1.20;1.07;;;23.70;99.90;;;;;;4953414;28;20479;-66
2023/09/19 12:34:35;;;;;;;1.43;1.20;;;23.80;99.90;;;;;;4953782;28;20543;-66
2023/09/19 12:37:20;;;;;;;1.27;1.13;;;23.60;99.90;;;;;;4953626;28;20496;-67
2023/09/19 12:39:50;;;;;;;1.50;1.10;;;23.50;99.90;;;;;;4954092;28;20535;-67
2023/09/19 12:42:19;;;;;;;1.33;1.03;;;23.30;99.90;;;;;;4953441;28;20496;-67
2023/09/19 12:44:51;;;;;;;1.97;1.47;;;23.30;99.90;;;;;;4953750;28;20816;-67
2023/09/19 12:47:22;;;;;;;1.30;1.20;;;23.50;99.90;;;;;;4953698;28;20471;-66
2023/09/19 12:50:13;;;;;;;2.00;1.20;;;23.60;99.90;;;;;;4953689;28;20456;-67
2023/09/19 12:52:42;;;;;;;2.67;1.40;;;23.60;99.90;;;;;;4954760;28;20532;-66
2023/09/19 12:55:20;;;;;;;1.93;1.00;;;23.60;99.90;;;;;;4953223;28;20754;-66
2023/09/19 12:57:57;;;;;;;1.20;1.10;;;23.70;99.90;;;;;;4953845;28;20464;-66
2023/09/19 13:00:34;;;;;;;1.20;1.10;;;23.60;99.90;;;;;;4962592;28;20459;-66
2023/09/19 13:03:26;;;;;;;1.27;1.17;;;23.70;99.90;;;;;;4952992;28;20488;-66
2023/09/19 13:05:55;;;;;;;1.37;1.20;;;23.70;99.90;;;;;;4953587;28;20478;-66
2023/09/19 13:08:28;;;;;;;1.23;1.07;;;23.80;99.90;;;;;;4953108;28;20474;-67
2023/09/19 13:11:09;;;;;;;1.47;1.30;;;23.80;99.90;;;;;;4953467;28;20937;-67
2023/09/19 13:13:37;;;;;;;2.03;1.47;;;23.90;99.90;;;;;;4954244;28;20456;-67
2023/09/19 13:16:07;;;;;;;1.20;0.90;;;24.00;99.90;;;;;;4952992;28;21001;-67
2023/09/19 13:18:44;;;;;;;1.53;1.43;;;24.10;99.90;;;;;;4953315;28;20965;-67
2023/09/19 13:21:15;;;;;;;1.93;1.40;;;24.10;99.90;;;;;;4952793;28;20487;-67
2023/09/19 13:23:44;;;;;;;1.83;1.37;;;24.10;99.90;;;;;;4952820;28;20488;-67
2023/09/19 13:26:11;;;;;;;1.33;1.10;;;24.10;99.90;;;;;;4952853;28;20464;-67
2023/09/19 13:28:38;;;;;;;1.50;1.10;;;24.20;99.90;;;;;;4953229;28;20465;-67
2023/09/19 13:31:05;;;;;;;1.43;1.33;;;24.30;99.90;;;;;;4952526;28;20488;-67
2023/09/19 13:33:33;;;;;;;3.97;1.57;;;24.30;99.90;;;;;;4952665;28;20467;-67
2023/09/19 13:36:00;;;;;;;1.93;1.40;;;24.30;99.90;;;;;;4953101;28;20471;-67
2023/09/19 13:38:27;;;;;;;2.13;1.50;;;24.40;99.90;;;;;;4952807;28;20464;-67
2023/09/19 13:40:56;;;;;;;2.10;1.37;;;24.50;99.90;;;;;;4952898;28;20487;-67
2023/09/19 13:43:23;;;;;;;1.70;1.40;;;24.30;99.90;;;;;;4951492;28;21016;-67
2023/09/19 13:45:50;;;;;;;2.20;1.50;;;24.20;99.90;;;;;;4952872;28;20555;-67
2023/09/19 13:48:22;;;;;;;1.67;1.20;;;24.10;99.90;;;;;;4952462;28;20472;-67
2023/09/19 13:50:49;;;;;;;1.90;1.43;;;24.20;99.90;;;;;;4953186;28;20480;-67
2023/09/19 13:53:16;;;;;;;1.43;1.20;;;24.10;99.90;;;;;;4952070;28;20457;-66
2023/09/19 13:55:43;;;;;;;1.33;1.23;;;24.00;99.90;;;;;;4953011;28;20464;-67
2023/09/19 13:58:12;;;;;;;1.10;0.97;;;24.10;99.90;;;;;;4952539;28;20961;-66
2023/09/19 14:00:39;;;;;;;1.83;0.93;;;24.20;99.90;;;;;;4952774;28;20480;-67
2023/09/19 14:03:06;;;;;;;1.30;1.10;;;24.30;99.90;;;;;;4951734;28;20898;-66
2023/09/19 14:05:32;;;;;;;1.40;1.20;;;24.40;99.90;;;;;;4952762;28;20527;-66
2023/09/19 14:08:00;;;;;;;1.37;1.13;;;24.40;99.90;;;;;;4952652;28;20941;-66
2023/09/19 14:10:27;;;;;;;1.40;1.30;;;24.40;99.90;;;;;;4952294;28;20527;-66
2023/09/19 14:12:53;;;;;;;1.40;1.20;;;24.30;99.90;;;;;;4952124;28;20464;-66
2023/09/19 14:15:29;;;;;;;1.33;1.23;;;24.20;99.90;;;;;;4952367;28;20467;-66
2023/09/19 14:17:55;;;;;;;1.40;1.13;;;24.10;99.90;;;;;;4952873;28;20471;-67
2023/09/19 14:20:23;;;;;;;5.13;1.53;;;23.80;99.90;;;;;;4952204;28;20460;-66
2023/09/19 14:22:50;;;;;;;1.90;1.27;;;23.50;99.90;;;;;;4951919;28;20492;-66
2023/09/19 14:25:17;;;;;;;1.40;1.20;;;23.50;99.90;;;;;;4952282;28;20503;-66
2023/09/19 14:27:44;;;;;;;2.30;1.50;;;23.30;99.90;;;;;;4952593;28;20471;-66
2023/09/19 14:30:11;;;;;;;1.87;1.50;;;23.10;99.90;;;;;;4952137;28;20563;-66
2023/09/19 14:32:40;;;;;;;1.90;1.13;;;23.00;99.90;;;;;;4952293;28;20491;-66
2023/09/19 14:35:09;;;;;;;1.77;1.20;;;23.10;99.90;;;;;;4952098;28;20464;-65
2023/09/19 14:37:38;;;;;;;1.73;1.30;;;23.00;99.90;;;;;;4952310;28;20472;-66
2023/09/19 14:40:08;;;;;;;1.60;1.50;;;22.90;99.90;;;;;;4952466;28;20472;-66
2023/09/19 14:42:37;;;;;;;1.20;1.10;;;22.80;99.90;;;;;;4954533;28;20546;-66
2023/09/19 14:45:06;;;;;;;3.10;1.30;;;22.90;99.90;;;;;;4952309;28;20472;-66
2023/09/19 14:47:33;;;;;;;1.60;1.10;;;23.00;99.90;;;;;;4954690;28;20468;-66
2023/09/19 14:50:02;;;;;;;1.53;1.23;;;23.10;99.90;;;;;;4952396;28;20522;-67
2023/09/19 14:52:29;;;;;;;1.50;1.20;;;23.10;99.90;;;;;;4952074;28;20479;-66
2023/09/19 14:54:56;;;;;;;2.80;1.17;;;23.20;99.90;;;;;;4953778;28;20459;-67
2023/09/19 14:57:24;;;;;;;1.17;1.00;;;23.10;99.90;;;;;;4954433;28;20554;-67
2023/09/19 14:59:51;;;;;;;1.67;1.10;;;23.10;99.90;;;;;;4955868;28;20554;-66
2023/09/19 15:02:17;;;;;;;1.30;1.10;;;23.10;99.90;;;;;;4955307;28;20487;-66
2023/09/19 15:04:47;;;;;;;1.47;1.20;;;23.10;99.90;;;;;;4955389;28;20461;-67
2023/09/19 15:07:15;;;;;;;1.47;1.33;;;23.10;99.90;;;;;;4955621;28;20968;-67
2023/09/19 15:09:43;;;;;;;2.33;1.20;;;23.10;99.90;;;;;;4955601;28;20527;-67
2023/09/19 15:12:11;;;;;;;1.90;1.30;;;23.10;99.90;;;;;;4955159;28;21004;-67
2023/09/19 15:14:37;;;;;;;1.87;1.50;;;23.10;99.90;;;;;;4955160;28;20538;-67
2023/09/19 15:17:05;;;;;;;1.80;1.10;;;23.10;99.90;;;;;;4955531;28;20851;-67
2023/09/19 15:19:32;;;;;;;1.50;1.30;;;23.00;99.90;;;;;;4955224;28;20468;-67
2023/09/19 15:21:58;;;;;;;2.23;1.23;;;22.80;99.90;;;;;;4955219;28;20488;-67
2023/09/19 15:24:27;;;;;;;1.10;1.00;;;22.50;99.90;;;;;;4954581;28;20487;-67
2023/09/19 15:26:55;;;;;;;1.27;1.00;;;22.40;99.90;;;;;;4955467;28;20460;-67
2023/09/19 15:29:22;;;;;;;1.20;1.07;;;22.30;99.90;;;;;;4955215;28;20464;-67
2023/09/19 15:31:49;;;;;;;1.20;1.00;;;22.30;99.90;;;;;;4955060;28;20538;-67
2023/09/19 15:34:16;;;;;;;1.40;1.20;;;22.30;99.90;;;;;;4954413;28;20456;-67
2023/09/19 15:36:43;;;;;;;1.27;1.17;;;22.30;99.90;;;;;;4959306;28;20464;-66
2023/09/19 15:39:11;;;;;;;1.57;1.10;;;22.30;99.90;;;;;;4955034;28;20559;-67
2023/09/19 15:41:40;;;;;;;1.10;1.00;;;22.30;99.90;;;;;;4954653;28;20480;-67
2023/09/19 15:44:13;;;;;;;1.40;1.13;;;22.30;99.90;;;;;;4954318;28;20572;-67
2023/09/19 15:46:40;;;;;;;1.23;1.13;;;22.20;99.90;;;;;;4954915;28;20960;-66
2023/09/19 15:49:08;;;;;;;1.77;1.00;;;22.20;99.90;;;;;;4954925;28;20495;-67
2023/09/19 15:51:36;;;;;;;1.40;1.20;;;22.10;99.90;;;;;;4954709;28;20480;-67
2023/09/19 15:54:08;;;;;;;1.77;1.30;;;22.00;99.90;;;;;;4954383;28;20460;-67
2023/09/19 15:56:35;;;;;;;1.50;1.03;;;22.00;99.90;;;;;;4954599;28;20472;-67
2023/09/19 15:59:04;;;;;;;1.20;1.10;;;22.00;99.90;;;;;;4954627;28;20494;-67
2023/09/19 16:01:31;;;;;;;1.50;1.10;;;22.00;99.90;;;;;;4954184;28;20499;-67
2023/09/19 16:03:58;;;;;;;1.83;1.20;;;21.90;99.90;;;;;;4951832;28;20487;-66
2023/09/19 16:06:27;;;;;;;1.50;1.10;;;21.90;99.90;;;;;;4950382;28;20471;-66
2023/09/19 16:08:55;;;;;;;1.27;1.17;;;21.80;99.90;;;;;;4950685;28;20476;-67
2023/09/19 16:11:22;;;;;;;1.83;1.23;;;21.80;99.90;;;;;;4950857;28;20527;-66
2023/09/19 16:13:50;;;;;;;2.17;1.30;;;21.70;99.90;;;;;;4950541;28;20464;-66
2023/09/19 16:16:22;;;;;;;1.40;1.03;;;21.70;99.90;;;;;;4951273;28;20467;-66
2023/09/19 16:18:50;;;;;;;1.30;1.00;;;21.70;99.90;;;;;;4950784;28;20523;-66
2023/09/19 16:21:19;;;;;;;1.10;1.00;;;21.60;99.90;;;;;;4950623;28;20938;-67
2023/09/19 16:23:46;;;;;;;1.50;1.17;;;21.60;99.90;;;;;;4950310;28;20942;-66
2023/09/19 16:26:13;;;;;;;1.30;1.20;;;21.60;99.90;;;;;;4951031;28;21013;-66
2023/09/19 16:28:41;;;;;;;1.13;1.03;;;21.50;99.90;;;;;;4950618;28;20478;-66
2023/09/19 16:31:09;;;;;;;1.40;1.20;;;21.40;99.90;;;;;;4951508;28;20505;-66
2023/09/19 16:33:40;;;;;;;1.40;1.10;;;21.30;99.90;;;;;;4953986;28;20557;-67